RCTP/TPE METAR and TAF weather

Enter ICAO airport designator
Station Type Date Time Source
RCTP METAR 2020/01/17 14:00 UTC NOAA

RCTP 171400Z 04014KT 5000 -RA SCT006 BKN010 BKN020 13/11 Q1022 NOSIG RMK A3020 RA AMT 0.2MM


Station Type Date Time Source
RCTP Decoded METAR 2020/01/17 14:00 UTC NOAA

Chiang Kai Shek, Taiwan (RCTP) 25-05N 121-13E
Jan 17, 2020 - 09:00 AM EST / 2020.01.17 1400 UTC
Wind: from the NE (040 degrees) at 16 MPH (14 KT):0
Visibility: 3 mile(s):0
Sky conditions: mostly cloudy
Weather: light rain
Temperature: 55 F (13 C)
Dew Point: 51 F (11 C)
Relative Humidity: 87%
Pressure (altimeter): 30.18 in. Hg (1022 hPa)
ob: RCTP 171400Z 04014KT 5000 -RA SCT006 BKN010 BKN020 13/11 Q1022 NOSIG RMK A3020 RA AMT 0.2MM
cycle: 14

Station Type Date Time Source
RCTP TAF 2020/01/17 12:06 UTC NOAA

TAF RCTP 171100Z 1712/1818 04015KT 8000 FEW005 BKN011
TEMPO 1712/1718 5000 RA FEW003 BKN006
TEMPO 1718/1724 05010KT FEW003 BKN006
BECMG 1802/1804 FEW010 BKN017
TEMPO 1806/1812 03010KT FEW016 BKN032

Example: see airport list